Flight NumberIRM1055 Date07.05.2018
Departure AirportOIII Arrival AirportOIKK
Departure Time22.59Arrival Time0.14
Pilot In CommandMohammadSadegh Ghanaat Block Time1.20 Hours
Pilot Rating100 % AircraftEP-MNK [ A300-600 ]


Distance432.00 Nm. Passengers280
Fuel Used7,866 Kg. Cargo12635 Kg
Expense Details Income Details
Fuel Cost5,601 v$Ticket Sales40,880 v$
Pilot Salary1,975 v$ Cargo income18,799.00 v$
Crew Salary1,400 v$ Bonus10,974 v$
Gross Profit63,871 v$ ( 638,710 v$ )

Client Versionv2.2.0.rc3 Max Simrate1
Flight Critique Pilot CommentsOIKK 062200Z 35010KT CAVOK 18/M02 Q1020 A3012 // Circling VOR // Rwy34

[ Back ]
FSA VA Integration Pack
Copyright © 2010 FSAirlines.net. Version : 0.1.1